createdAt,value
2019-04-22T00:02:03.366Z,100160.39
2019-04-22T00:05:13.130Z,100159.83
2019-04-22T00:08:31.284Z,100163.44
2019-04-22T00:11:35.731Z,100161.34
2019-04-22T00:14:43.962Z,100151.67
2019-04-22T00:18:02.970Z,100146.69
2019-04-22T00:20:58.367Z,100135.95
2019-04-22T00:24:04.471Z,100135.95
2019-04-22T00:27:15.085Z,100135.66
2019-04-22T00:30:18.232Z,100130.14
2019-04-22T00:33:24.942Z,100130.14
2019-04-22T00:36:27.548Z,100134.12
2019-04-22T00:39:40.899Z,100131.27
2019-04-22T00:42:41.564Z,100129.46
2019-04-22T00:49:18.988Z,100120.91
2019-04-22T00:52:03.669Z,100122.31
2019-04-22T00:55:16.347Z,100121.35
2019-04-22T00:58:16.235Z,100120.58
2019-04-22T01:01:32.202Z,100115.27
2019-04-22T01:04:28.007Z,100117.34
2019-04-22T01:07:32.188Z,100106.52
2019-04-22T01:10:44.070Z,100106.52
2019-04-22T01:13:38.658Z,100100.06
2019-04-22T01:16:52.114Z,100100.06
2019-04-22T01:19:59.733Z,100098.71
2019-04-22T01:23:00.649Z,100098.71
2019-04-22T01:26:01.077Z,100096.33
2019-04-22T01:29:05.302Z,100098.72
2019-04-22T01:31:58.240Z,100100.96
2019-04-22T01:35:13.082Z,100103.70
2019-04-22T01:38:31.329Z,100095.86
2019-04-22T01:41:48.392Z,100092.98
2019-04-22T01:44:45.385Z,100082.70
2019-04-22T01:47:53.274Z,100076.34
2019-04-22T01:50:54.700Z,100076.34
2019-04-22T01:54:05.200Z,100082.04
2019-04-22T01:57:09.893Z,100083.52
2019-04-22T02:00:05.037Z,100071.57
2019-04-22T02:03:26.525Z,100079.89
2019-04-22T02:06:30.429Z,100074.06
2019-04-22T02:09:41.251Z,100068.64
2019-04-22T02:12:38.874Z,100071.91
2019-04-22T02:15:47.323Z,100063.72
2019-04-22T02:18:52.436Z,100069.97
2019-04-22T02:21:56.516Z,100067.90
2019-04-22T02:25:13.965Z,100060.20
2019-04-22T02:28:16.427Z,100055.95
2019-04-22T02:31:25.786Z,100055.99
2019-04-22T02:37:29.742Z,100041.74
2019-04-22T02:40:56.290Z,100040.22
2019-04-22T02:47:04.529Z,100037.72
2019-04-22T02:49:53.483Z,100031.63
2019-04-22T02:53:00.966Z,100026.13
2019-04-22T03:02:43.874Z,100020.45
2019-04-22T03:05:36.399Z,100019.00
2019-04-22T03:14:45.668Z,100031.58
2019-04-22T03:17:57.951Z,100020.92
2019-04-22T03:20:58.547Z,100008.15
2019-04-22T03:24:20.332Z,100008.73
2019-04-22T03:27:10.645Z,100005.97
2019-04-22T03:30:41.741Z,100003.11
2019-04-22T03:42:43.825Z,99989.62
2019-04-22T03:45:42.556Z,99987.05
2019-04-22T03:49:07.075Z,99985.69
2019-04-22T03:52:05.549Z,99988.23
2019-04-22T03:55:16.063Z,99984.64
2019-04-22T03:57:57.193Z,99986.58
2019-04-22T04:01:18.729Z,99981.67
2019-04-22T04:10:35.367Z,99976.91
2019-04-22T04:13:41.642Z,99973.33
2019-04-22T04:16:49.906Z,99967.11
2019-04-22T04:20:05.898Z,99966.11
2019-04-22T04:22:58.974Z,99956.55
2019-04-22T04:32:27.442Z,99954.44
2019-04-22T04:35:32.942Z,99957.70
2019-04-22T04:38:26.631Z,99958.55
2019-04-22T04:41:34.297Z,99959.41
2019-04-22T04:44:58.883Z,99960.66
2019-04-22T04:51:00.077Z,99955.83
2019-04-22T04:54:01.236Z,99952.19
2019-04-22T04:56:56.720Z,99950.79
2019-04-22T05:00:34.577Z,99943.56
2019-04-22T05:06:22.277Z,99939.95
2019-04-22T05:09:21.463Z,99943.84
2019-04-22T05:15:31.295Z,99939.30
2019-04-22T05:18:49.182Z,99936.98
2019-04-22T05:21:50.734Z,99937.56
2019-04-22T05:24:53.327Z,99935.66
2019-04-22T05:27:50.930Z,99937.98
2019-04-22T05:31:01.549Z,99937.83
2019-04-22T05:34:08.421Z,99934.25
2019-04-22T05:37:17.622Z,99927.03
2019-04-22T05:40:20.067Z,99928.88
2019-04-22T05:43:21.549Z,99933.39
2019-04-22T05:46:29.878Z,99933.26
2019-04-22T05:49:31.170Z,99931.78
2019-04-22T05:52:40.548Z,99939.63
2019-04-22T05:55:46.693Z,99938.30
2019-04-22T05:58:58.408Z,99936.44
2019-04-22T06:05:10.113Z,99932.08
2019-04-22T06:08:13.361Z,99928.25
2019-04-22T06:11:22.748Z,99920.88
2019-04-22T06:14:27.866Z,99923.64
2019-04-22T06:17:32.080Z,99923.01
2019-04-22T06:20:42.275Z,99922.84
2019-04-22T06:23:51.889Z,99920.97
2019-04-22T06:29:55.337Z,99921.95
2019-04-22T06:33:00.835Z,99914.36
2019-04-22T06:36:08.058Z,99914.20
2019-04-22T06:39:14.310Z,99919.43
2019-04-22T06:42:21.787Z,99914.69
2019-04-22T06:45:24.917Z,99912.68
2019-04-22T06:48:33.249Z,99910.03
2019-04-22T06:51:37.503Z,99918.77
2019-04-22T06:54:45.411Z,99898.62
2019-04-22T06:57:45.002Z,99898.95
2019-04-22T07:00:58.931Z,99903.64
2019-04-22T07:03:58.462Z,99891.06
2019-04-22T07:07:08.076Z,99887.81
2019-04-22T07:10:26.470Z,99886.74
2019-04-22T07:13:23.575Z,99884.45
2019-04-22T07:16:25.074Z,99877.47
2019-04-22T07:19:36.194Z,99875.00
2019-04-22T07:22:38.494Z,99884.34
2019-04-22T07:25:40.669Z,99871.22
2019-04-22T07:28:43.862Z,99863.27
2019-04-22T07:31:54.708Z,99863.27
2019-04-22T07:35:03.756Z,99873.13
2019-04-22T07:38:11.232Z,99863.64
2019-04-22T07:41:28.672Z,99844.51
2019-04-22T07:44:16.537Z,99861.54
2019-04-22T07:47:39.106Z,99851.98
2019-04-22T07:50:43.011Z,99851.27
2019-04-22T07:53:33.940Z,99837.25
2019-04-22T07:56:48.598Z,99840.55
2019-04-22T07:59:49.335Z,99836.91
2019-04-22T08:02:59.744Z,99834.59
2019-04-22T08:09:11.478Z,99830.72
2019-04-22T08:12:16.656Z,99820.31
2019-04-22T08:15:24.023Z,99818.64
2019-04-22T08:21:33.678Z,99814.66
2019-04-22T08:24:41.755Z,99807.27
2019-04-22T08:27:46.746Z,99802.98
2019-04-22T08:33:54.596Z,99793.71
2019-04-22T08:40:18.325Z,99788.13
2019-04-22T08:43:22.220Z,99784.31
2019-04-22T08:46:30.163Z,99780.53
2019-04-22T08:49:23.215Z,99774.75
2019-04-22T08:52:35.407Z,99769.75
2019-04-22T08:58:50.825Z,99749.71
2019-04-22T09:01:53.451Z,99747.03
2019-04-22T09:04:54.019Z,99744.81
2019-04-22T09:08:09.391Z,99738.49
2019-04-22T09:11:16.102Z,99735.80
2019-04-22T09:14:15.693Z,99723.73
2019-04-22T09:17:22.772Z,99722.66
2019-04-22T09:20:26.523Z,99717.57
2019-04-22T09:23:40.376Z,99719.75
2019-04-22T09:26:45.332Z,99707.33
2019-04-22T09:29:43.017Z,99709.30
2019-04-22T09:32:54.222Z,99698.95
2019-04-22T09:36:00.113Z,99693.83
2019-04-22T09:39:04.452Z,99686.54
2019-04-22T09:42:10.832Z,99685.69
2019-04-22T09:45:15.079Z,99685.31
2019-04-22T09:48:23.187Z,99678.02
2019-04-22T09:51:30.745Z,99672.33
2019-04-22T09:54:44.987Z,99665.13
2019-04-22T09:57:41.290Z,99668.85
2019-04-22T10:01:16.862Z,99658.95
2019-04-22T10:04:24.982Z,99651.63
2019-04-22T10:07:23.916Z,99645.95
2019-04-22T10:10:29.982Z,99641.16
2019-04-22T10:13:34.644Z,99636.27
2019-04-22T10:19:40.990Z,99640.47
2019-04-22T10:22:54.756Z,99629.92
2019-04-22T10:25:57.318Z,99623.34
2019-04-22T10:29:07.722Z,99623.22
2019-04-22T10:32:07.052Z,99615.20
2019-04-22T10:35:23.091Z,99606.13
2019-04-22T10:38:26.468Z,99614.57
2019-04-22T10:41:30.742Z,99598.43
2019-04-22T10:44:35.320Z,99604.34
2019-04-22T10:47:40.372Z,99591.94
2019-04-22T10:50:46.787Z,99585.70
2019-04-22T10:53:51.260Z,99585.50
2019-04-22T10:56:55.278Z,99579.66
2019-04-22T11:00:00.701Z,99568.70
2019-04-22T11:03:06.701Z,99563.81
2019-04-22T11:06:11.559Z,99564.31
2019-04-22T11:09:16.324Z,99556.05
2019-04-22T11:12:24.328Z,99557.68
2019-04-22T11:15:26.639Z,99548.54
2019-04-22T11:18:31.641Z,99544.83
2019-04-22T11:21:36.024Z,99548.64
2019-04-22T11:24:41.147Z,99537.95
2019-04-22T11:27:45.413Z,99542.19
2019-04-22T11:30:50.191Z,99542.16
2019-04-22T11:33:54.614Z,99533.47
2019-04-22T11:36:58.951Z,99525.14
2019-04-22T11:40:11.420Z,99523.18
2019-04-22T11:43:10.267Z,99514.72
2019-04-22T11:46:15.690Z,99510.39
2019-04-22T11:49:19.890Z,99502.16
2019-04-22T11:52:24.665Z,99497.06
2019-04-22T11:55:29.052Z,99500.45
2019-04-22T11:58:33.366Z,99497.76
2019-04-22T12:01:39.017Z,99493.07
2019-04-22T12:04:43.595Z,99481.06
2019-04-22T12:07:48.978Z,99483.77
2019-04-22T12:10:57.119Z,99477.08
2019-04-22T12:14:00.011Z,99469.13
2019-04-22T12:17:04.012Z,99467.37
2019-04-22T12:20:10.608Z,99463.29
2019-04-22T12:23:14.789Z,99464.31
2019-04-22T12:26:20.885Z,99454.73
2019-04-22T12:29:24.979Z,99447.09
2019-04-22T12:32:29.693Z,99444.37
2019-04-22T12:35:34.598Z,99442.19
2019-04-22T12:38:39.900Z,99432.80
2019-04-22T12:41:44.345Z,99424.84
2019-04-22T12:44:49.641Z,99426.95
2019-04-22T12:47:55.867Z,99412.47
2019-04-22T12:51:00.823Z,99413.28
2019-04-22T12:54:04.863Z,99406.70
2019-04-22T12:57:10.284Z,99403.01
2019-04-22T13:00:15.646Z,99398.80
2019-04-22T13:03:22.197Z,99386.95
2019-04-22T13:06:27.891Z,99375.74
2019-04-22T13:09:33.519Z,99382.14
2019-04-22T13:12:39.159Z,99377.95
2019-04-22T13:15:44.515Z,99370.94
2019-04-22T13:18:54.006Z,99370.44
2019-04-22T13:21:54.679Z,99367.78
2019-04-22T13:24:59.733Z,99358.29
2019-04-22T13:28:05.025Z,99351.05
2019-04-22T13:31:09.783Z,99345.45
2019-04-22T13:34:21.586Z,99342.08
2019-04-22T13:37:20.915Z,99337.77
2019-04-22T13:40:25.269Z,99332.80
2019-04-22T13:43:29.191Z,99324.70
2019-04-22T13:46:34.118Z,99324.16
2019-04-22T13:50:27.637Z,99309.17
2019-04-22T13:56:19.369Z,99299.81
2019-04-22T13:59:09.235Z,99300.59
2019-04-22T14:02:30.649Z,99294.71
2019-04-22T14:05:37.030Z,99294.98
2019-04-22T14:08:43.137Z,99288.36
2019-04-22T14:11:52.908Z,99279.74
2019-04-22T14:14:54.283Z,99280.91
2019-04-22T14:17:58.981Z,99281.09
2019-04-22T14:21:02.945Z,99271.06
2019-04-22T14:24:10.604Z,99261.43
2019-04-22T14:27:25.835Z,99257.80
2019-04-22T14:30:18.904Z,99257.52
2019-04-22T14:33:22.833Z,99252.69
2019-04-22T14:36:27.575Z,99249.16
2019-04-22T14:39:31.949Z,99250.88
2019-04-22T14:42:56.459Z,99247.58
2019-04-22T14:49:10.430Z,99238.52
2019-04-22T14:52:15.393Z,99236.31
2019-04-22T14:55:09.106Z,99235.20
2019-04-22T14:58:06.837Z,99227.55
2019-04-22T15:01:12.841Z,99229.55
2019-04-22T15:04:17.294Z,99231.19
2019-04-22T15:07:23.166Z,99216.94
2019-04-22T15:10:28.212Z,99216.67
2019-04-22T15:13:33.580Z,99212.85
2019-04-22T15:16:57.312Z,99219.33
2019-04-22T15:20:19.665Z,99206.56
2019-04-22T15:23:24.762Z,99199.98
2019-04-22T15:26:28.765Z,99198.69
2019-04-22T15:29:33.623Z,99201.92
2019-04-22T15:32:39.021Z,99196.55
2019-04-22T15:35:43.323Z,99195.29
2019-04-22T15:38:49.097Z,99185.50
2019-04-22T15:42:00.410Z,99190.80
2019-04-22T15:44:59.981Z,99186.02
2019-04-22T15:48:04.227Z,99177.84
2019-04-22T15:51:08.802Z,99169.88
2019-04-22T15:54:13.885Z,99171.47
2019-04-22T15:57:17.939Z,99161.31
2019-04-22T16:00:35.565Z,99165.69
2019-04-22T16:03:29.137Z,99156.31
2019-04-22T16:06:34.658Z,99153.17
2019-04-22T16:09:39.465Z,99160.17
2019-04-22T16:12:56.452Z,99152.03
2019-04-22T16:15:50.474Z,99152.77
2019-04-22T16:18:54.475Z,99142.99
2019-04-22T16:22:03.901Z,99137.27
2019-04-22T16:25:31.255Z,99132.92
2019-04-22T16:28:35.555Z,99129.19
2019-04-22T16:31:39.811Z,99126.28
2019-04-22T16:34:43.848Z,99123.48
2019-04-22T16:37:48.854Z,99127.67
2019-04-22T16:40:52.897Z,99122.17
2019-04-22T16:43:56.826Z,99121.77
2019-04-22T16:47:01.564Z,99115.67
2019-04-22T16:50:07.871Z,99119.01
2019-04-22T16:53:14.165Z,99111.91
2019-04-22T16:56:18.138Z,99112.77
2019-04-22T16:59:22.608Z,99109.55
2019-04-22T17:02:50.272Z,99111.06
2019-04-22T17:06:29.909Z,99100.72
2019-04-22T17:09:34.117Z,99102.63
2019-04-22T17:12:48.118Z,99107.11
2019-04-22T17:15:45.161Z,99102.67
2019-04-22T17:18:50.095Z,99107.72
2019-04-22T17:21:55.281Z,99105.02
2019-04-22T17:25:00.238Z,99101.65
2019-04-22T17:28:05.707Z,99095.23
2019-04-22T17:31:10.839Z,99092.38
2019-04-22T17:34:15.843Z,99108.16
2019-04-22T17:37:25.822Z,99106.86
2019-04-22T17:40:44.996Z,99103.01
2019-04-22T17:44:04.725Z,99096.41
2019-04-22T17:46:58.838Z,99097.23
2019-04-22T17:50:19.166Z,99099.73
2019-04-22T17:53:26.265Z,99094.87
2019-04-22T17:56:30.881Z,99098.45
2019-04-22T17:59:32.257Z,99101.19
2019-04-22T18:02:32.317Z,99107.25
2019-04-22T18:05:40.672Z,99103.71
2019-04-22T18:08:57.491Z,99104.42
2019-04-22T18:12:05.659Z,99098.31
2019-04-22T18:15:11.391Z,99098.14
2019-04-22T18:18:20.963Z,99101.00
2019-04-22T18:21:16.194Z,99095.96
2019-04-22T18:24:17.502Z,99097.62
2019-04-22T18:30:33.510Z,99100.58
2019-04-22T18:33:37.068Z,99101.88
2019-04-22T18:36:45.694Z,99100.64
2019-04-22T18:39:57.014Z,99097.45
2019-04-22T18:43:03.416Z,99107.11
2019-04-22T18:46:10.687Z,99107.45
2019-04-22T18:49:11.226Z,99102.37
2019-04-22T18:52:53.294Z,99099.98
2019-04-22T18:56:16.619Z,99100.92
2019-04-22T18:59:09.643Z,99094.48
2019-04-22T19:02:07.814Z,99097.80
2019-04-22T19:05:25.108Z,99096.45
2019-04-22T19:08:36.880Z,99096.47
2019-04-22T19:11:52.191Z,99098.05
2019-04-22T19:15:01.744Z,99101.89
2019-04-22T19:18:01.855Z,99097.59
2019-04-22T19:21:03.064Z,99095.77
2019-04-22T19:24:07.277Z,99096.55
2019-04-22T19:27:08.747Z,99092.62
2019-04-22T19:30:16.555Z,99092.13
2019-04-22T19:33:23.574Z,99094.60
2019-04-22T19:36:36.414Z,99088.93
2019-04-22T19:39:35.728Z,99098.94
2019-04-22T19:45:48.918Z,99089.95
2019-04-22T19:48:57.908Z,99086.84
2019-04-22T19:52:05.663Z,99080.14
2019-04-22T19:55:07.923Z,99081.21
2019-04-22T19:58:12.654Z,99073.28
2019-04-22T20:01:49.768Z,99072.44
2019-04-22T20:05:11.116Z,99072.11
2019-04-22T20:08:14.649Z,99077.73
2019-04-22T20:11:23.128Z,99073.77
2019-04-22T20:14:28.126Z,99070.93
2019-04-22T20:17:31.652Z,99074.04
2019-04-22T20:20:41.360Z,99067.12
2019-04-22T20:23:38.193Z,99067.66
2019-04-22T20:26:49.973Z,99072.98
2019-04-22T20:30:14.477Z,99066.18
2019-04-22T20:33:00.627Z,99058.91
2019-04-22T20:36:14.988Z,99056.69
2019-04-22T20:39:09.203Z,99069.67
2019-04-22T20:42:33.222Z,99059.30
2019-04-22T20:45:33.508Z,99062.04
2019-04-22T20:48:22.813Z,99052.55
2019-04-22T20:51:50.141Z,99051.70
2019-04-22T20:54:40.450Z,99045.38
2019-04-22T20:57:57.907Z,99048.08
2019-04-22T21:00:46.468Z,99044.77
2019-04-22T21:03:47.701Z,99043.03
2019-04-22T21:07:02.198Z,99041.66
2019-04-22T21:10:09.089Z,99036.62
2019-04-22T21:13:14.402Z,99032.96
2019-04-22T21:16:26.919Z,99021.33
2019-04-22T21:19:38.316Z,99027.45
2019-04-22T21:22:32.451Z,99023.03
2019-04-22T21:25:29.189Z,99020.23
2019-04-22T21:28:44.310Z,99012.38
2019-04-22T21:31:57.953Z,99002.66
2019-04-22T21:35:06.687Z,98996.72
2019-04-22T21:38:08.723Z,99002.75
2019-04-22T21:41:12.649Z,99002.64
2019-04-22T21:44:14.152Z,99003.00
2019-04-22T21:47:26.146Z,98998.03
2019-04-22T21:50:48.580Z,98990.63
2019-04-22T21:53:41.612Z,98997.67
2019-04-22T21:57:10.213Z,98988.61
2019-04-22T22:00:04.434Z,98991.49
2019-04-22T22:03:17.047Z,98990.08
2019-04-22T22:06:06.201Z,98992.11
2019-04-22T22:09:22.141Z,98999.28
2019-04-22T22:12:26.471Z,98985.98
2019-04-22T22:15:33.824Z,98995.34
2019-04-22T22:18:30.350Z,98999.84
2019-04-22T22:21:51.178Z,98984.23
2019-04-22T22:24:53.184Z,98983.75
2019-04-22T22:27:47.467Z,98987.05
2019-04-22T22:31:12.952Z,98984.23
2019-04-22T22:34:10.801Z,98980.50
2019-04-22T22:37:06.478Z,98970.06
2019-04-22T22:40:07.184Z,98976.97
2019-04-22T22:43:11.725Z,98979.64
2019-04-22T22:46:22.700Z,98969.83
2019-04-22T22:49:54.624Z,98976.91
2019-04-22T22:55:46.391Z,98972.86
2019-04-22T22:58:52.331Z,98968.01
2019-04-22T23:01:54.434Z,98969.58
2019-04-22T23:05:05.906Z,98955.88
2019-04-22T23:08:16.957Z,98965.75
2019-04-22T23:11:20.614Z,98962.34
2019-04-22T23:14:23.238Z,98962.34
2019-04-22T23:17:13.997Z,98948.69
2019-04-22T23:20:13.635Z,98949.33
2019-04-22T23:23:37.878Z,98928.41
2019-04-22T23:26:42.020Z,98936.25
2019-04-22T23:29:55.838Z,98939.73
2019-04-22T23:33:09.930Z,98936.42
2019-04-22T23:36:25.065Z,98934.77
2019-04-22T23:39:48.210Z,98924.08
2019-04-22T23:42:52.825Z,98920.08
2019-04-22T23:45:57.942Z,98899.17
2019-04-22T23:49:04.550Z,98899.17
2019-04-22T23:52:13.058Z,98896.37
2019-04-22T23:55:18.077Z,98901.22
2019-04-22T23:58:37.770Z,98898.88
